ETAD

Spangdahlem Air Base Airport

Trier, Germany
METAR ETAD 201156Z AUTO 05005KT 9999 CLR 15/07 A3041 RMK AO2 SLP289 T01480073 10149 20056 50000 $
Observed Flight Rules
Oct-20 @ 11:56 UTC (56 minutes ago) Visual Flight Rules
Wind Visibility Clouds
50° at 5 knots 10,000+ meters
  • Clear skies
Temperatures Readings
Current 15°C / 59°F
Dewpoint 7°C / 45°F
Humidity 59%
Altimeter 30.41" Hg
Pressure 1028.9 hPa
Elevation 365
METAR ETAD 201156Z AUTO 05005KT 9999 CLR 15/07 A3041 RMK AO2 SLP289 T01480073 10149 20056 50000 $
Observed Flight Rules
Oct-20 @ 11:56 UTC
(56 minutes ago)
VFR
Wind Visibility
50° at 5 knots 10,000+ meters
Clouds
  • Clear skies
Temperature Dewpoint
15°C / 59°F 7°C / 45°F
Humidity Altimeter Pressure
59% 30.41" Hg 1028.9 hPa